Lodi Township, Michigan
Current Conditions -  °F | °C
As of 5:53 AM on Wednesday 22 Oct 2014 (Local Time) from KARB Reporting Station
Overcast Overcast  
Wind Chill: 38°   Ceiling: 2400
Heat Index: 44°   Visibility: 10mi
Dew Point: 36°   Wind: 12mph
Humidity: 73%   Direction: 360°N
Pressure: 30.26"   Gusts: NA
Location:  42.2601°N, 83.8448°W
Report Text: KARB 220953Z AUTO 36010KT 10SM OVC024 07/02 A3026 RMK AO2 SLP250 T00670022
Loading
Personal Weather Stations






























Interactive Weather Map
Tropical Storm Tracking
New forecast layout! Learn more

10-Day Weather Forecast

Advertisements
Track Severe Weather on mobile